sensor_id;sensor_type;location;lat;lon;timestamp;temperature;humidity
10702;DHT22;5402;50.004;8.246;2022-08-01T00:01:30;23.10;96.70
10702;DHT22;5402;50.004;8.246;2022-08-01T00:03:58;23.00;96.90
10702;DHT22;5402;50.004;8.246;2022-08-01T00:06:25;23.00;96.80
10702;DHT22;5402;50.004;8.246;2022-08-01T00:08:54;23.10;96.80
10702;DHT22;5402;50.004;8.246;2022-08-01T00:11:21;23.00;96.90
10702;DHT22;5402;50.004;8.246;2022-08-01T00:13:48;23.00;97.00
10702;DHT22;5402;50.004;8.246;2022-08-01T00:16:15;22.90;96.90
10702;DHT22;5402;50.004;8.246;2022-08-01T00:18:42;22.90;97.00
10702;DHT22;5402;50.004;8.246;2022-08-01T00:21:10;22.90;97.40
10702;DHT22;5402;50.004;8.246;2022-08-01T00:23:37;22.80;97.20
10702;DHT22;5402;50.004;8.246;2022-08-01T00:26:03;22.80;97.20
10702;DHT22;5402;50.004;8.246;2022-08-01T00:28:30;22.80;97.40
10702;DHT22;5402;50.004;8.246;2022-08-01T00:30:57;22.70;97.50
10702;DHT22;5402;50.004;8.246;2022-08-01T00:33:23;22.80;97.50
10702;DHT22;5402;50.004;8.246;2022-08-01T00:35:51;22.70;97.70
10702;DHT22;5402;50.004;8.246;2022-08-01T00:38:19;22.70;97.70
10702;DHT22;5402;50.004;8.246;2022-08-01T00:40:46;22.60;98.00
10702;DHT22;5402;50.004;8.246;2022-08-01T00:43:13;22.60;98.10
10702;DHT22;5402;50.004;8.246;2022-08-01T00:45:40;22.60;98.20
10702;DHT22;5402;50.004;8.246;2022-08-01T00:48:07;22.50;98.30
10702;DHT22;5402;50.004;8.246;2022-08-01T00:50:34;22.50;98.50
10702;DHT22;5402;50.004;8.246;2022-08-01T00:53:02;22.50;98.40
10702;DHT22;5402;50.004;8.246;2022-08-01T00:55:31;22.40;98.60
10702;DHT22;5402;50.004;8.246;2022-08-01T00:57:58;22.40;98.70
10702;DHT22;5402;50.004;8.246;2022-08-01T01:00:25;22.40;98.70
10702;DHT22;5402;50.004;8.246;2022-08-01T01:02:52;22.30;98.80
10702;DHT22;5402;50.004;8.246;2022-08-01T01:05:19;22.30;99.10
10702;DHT22;5402;50.004;8.246;2022-08-01T01:08:01;22.40;98.90
10702;DHT22;5402;50.004;8.246;2022-08-01T01:10:32;22.40;99.10
10702;DHT22;5402;50.004;8.246;2022-08-01T01:13:04;22.30;99.20
10702;DHT22;5402;50.004;8.246;2022-08-01T01:15:35;22.30;99.50
10702;DHT22;5402;50.004;8.246;2022-08-01T01:18:10;22.20;99.60
10702;DHT22;5402;50.004;8.246;2022-08-01T01:20:40;22.10;99.60
10702;DHT22;5402;50.004;8.246;2022-08-01T01:23:20;22.00;99.80
10702;DHT22;5402;50.004;8.246;2022-08-01T01:26:00;22.00;99.80
10702;DHT22;5402;50.004;8.246;2022-08-01T01:28:34;22.00;99.90
10702;DHT22;5402;50.004;8.246;2022-08-01T01:31:06;21.90;99.90
10702;DHT22;5402;50.004;8.246;2022-08-01T01:33:36;21.90;99.90
10702;DHT22;5402;50.004;8.246;2022-08-01T01:36:09;21.80;99.90
10702;DHT22;5402;50.004;8.246;2022-08-01T01:38:39;21.80;99.90
10702;DHT22;5402;50.004;8.246;2022-08-01T01:41:08;21.70;99.90
10702;DHT22;5402;50.004;8.246;2022-08-01T01:43:36;21.70;99.90
10702;DHT22;5402;50.004;8.246;2022-08-01T01:46:06;21.70;99.90
10702;DHT22;5402;50.004;8.246;2022-08-01T01:48:34;21.60;99.90
10702;DHT22;5402;50.004;8.246;2022-08-01T01:51:02;21.60;99.90
10702;DHT22;5402;50.004;8.246;2022-08-01T01:53:33;21.50;99.90
10702;DHT22;5402;50.004;8.246;2022-08-01T01:56:02;21.40;99.90
10702;DHT22;5402;50.004;8.246;2022-08-01T01:58:31;21.40;99.90
10702;DHT22;5402;50.004;8.246;2022-08-01T02:01:00;21.30;99.90
10702;DHT22;5402;50.004;8.246;2022-08-01T02:03:30;21.30;99.90
10702;DHT22;5402;50.004;8.246;2022-08-01T02:05:58;21.30;99.90
10702;DHT22;5402;50.004;8.246;2022-08-01T02:08:25;21.20;99.90
10702;DHT22;5402;50.004;8.246;2022-08-01T02:10:55;21.10;99.90
10702;DHT22;5402;50.004;8.246;2022-08-01T02:13:40;21.10;99.90
10702;DHT22;5402;50.004;8.246;2022-08-01T02:16:09;21.00;99.90
10702;DHT22;5402;50.004;8.246;2022-08-01T02:18:38;21.00;99.90
10702;DHT22;5402;50.004;8.246;2022-08-01T02:21:10;21.00;99.90
10702;DHT22;5402;50.004;8.246;2022-08-01T02:23:39;20.90;99.90
10702;DHT22;5402;50.004;8.246;2022-08-01T02:26:09;20.90;99.90
10702;DHT22;5402;50.004;8.246;2022-08-01T02:28:40;20.90;99.90
10702;DHT22;5402;50.004;8.246;2022-08-01T02:31:12;20.90;99.90
10702;DHT22;5402;50.004;8.246;2022-08-01T02:33:43;20.90;99.90
10702;DHT22;5402;50.004;8.246;2022-08-01T02:36:11;20.90;99.90
10702;DHT22;5402;50.004;8.246;2022-08-01T02:38:42;20.80;99.90
10702;DHT22;5402;50.004;8.246;2022-08-01T02:41:12;20.80;99.90
10702;DHT22;5402;50.004;8.246;2022-08-01T02:43:43;20.80;99.90
10702;DHT22;5402;50.004;8.246;2022-08-01T02:46:20;20.80;99.90
10702;DHT22;5402;50.004;8.246;2022-08-01T02:48:50;20.80;99.90
10702;DHT22;5402;50.004;8.246;2022-08-01T02:51:19;20.80;99.90
10702;DHT22;5402;50.004;8.246;2022-08-01T02:53:48;20.60;99.90
10702;DHT22;5402;50.004;8.246;2022-08-01T02:56:17;20.70;99.90
10702;DHT22;5402;50.004;8.246;2022-08-01T02:58:46;20.60;99.90
10702;DHT22;5402;50.004;8.246;2022-08-01T03:01:14;20.60;99.90
10702;DHT22;5402;50.004;8.246;2022-08-01T03:03:42;20.60;99.90
10702;DHT22;5402;50.004;8.246;2022-08-01T03:06:11;20.60;99.90
10702;DHT22;5402;50.004;8.246;2022-08-01T03:08:39;20.60;99.90
10702;DHT22;5402;50.004;8.246;2022-08-01T03:11:07;20.60;99.90
10702;DHT22;5402;50.004;8.246;2022-08-01T03:13:35;20.50;99.90
10702;DHT22;5402;50.004;8.246;2022-08-01T03:16:04;20.60;99.90
10702;DHT22;5402;50.004;8.246;2022-08-01T03:18:32;20.50;99.90
10702;DHT22;5402;50.004;8.246;2022-08-01T03:21:00;20.50;99.90
10702;DHT22;5402;50.004;8.246;2022-08-01T03:23:30;20.50;99.90
10702;DHT22;5402;50.004;8.246;2022-08-01T03:26:00;20.50;99.90
10702;DHT22;5402;50.004;8.246;2022-08-01T03:28:29;20.50;99.90
10702;DHT22;5402;50.004;8.246;2022-08-01T03:30:58;20.40;99.90
10702;DHT22;5402;50.004;8.246;2022-08-01T03:33:26;20.40;99.90
10702;DHT22;5402;50.004;8.246;2022-08-01T03:35:54;20.30;99.90
10702;DHT22;5402;50.004;8.246;2022-08-01T03:38:25;20.30;99.90
10702;DHT22;5402;50.004;8.246;2022-08-01T03:40:58;20.20;99.90
10702;DHT22;5402;50.004;8.246;2022-08-01T03:43:30;20.30;99.90
10702;DHT22;5402;50.004;8.246;2022-08-01T03:46:03;20.20;99.90
10702;DHT22;5402;50.004;8.246;2022-08-01T03:48:37;20.20;99.90
10702;DHT22;5402;50.004;8.246;2022-08-01T03:51:05;20.20;99.90
10702;DHT22;5402;50.004;8.246;2022-08-01T03:53:34;20.20;99.90
10702;DHT22;5402;50.004;8.246;2022-08-01T03:56:04;20.30;99.90
10702;DHT22;5402;50.004;8.246;2022-08-01T03:58:35;20.20;99.90
10702;DHT22;5402;50.004;8.246;2022-08-01T04:01:03;20.30;99.90
10702;DHT22;5402;50.004;8.246;2022-08-01T04:03:30;20.20;99.90
10702;DHT22;5402;50.004;8.246;2022-08-01T04:05:58;20.20;99.90
10702;DHT22;5402;50.004;8.246;2022-08-01T04:08:35;20.20;99.90
10702;DHT22;5402;50.004;8.246;2022-08-01T04:11:03;20.20;99.90
10702;DHT22;5402;50.004;8.246;2022-08-01T04:13:30;20.10;99.90
10702;DHT22;5402;50.004;8.246;2022-08-01T04:15:57;20.10;99.90
10702;DHT22;5402;50.004;8.246;2022-08-01T04:18:24;20.10;99.90
10702;DHT22;5402;50.004;8.246;2022-08-01T04:20:51;20.10;99.90
10702;DHT22;5402;50.004;8.246;2022-08-01T04:23:20;19.90;99.90
10702;DHT22;5402;50.004;8.246;2022-08-01T04:25:50;19.90;99.90
10702;DHT22;5402;50.004;8.246;2022-08-01T04:28:19;19.80;99.90
10702;DHT22;5402;50.004;8.246;2022-08-01T04:30:49;19.70;99.90
10702;DHT22;5402;50.004;8.246;2022-08-01T04:33:17;19.80;99.90
10702;DHT22;5402;50.004;8.246;2022-08-01T04:35:46;19.80;99.90
10702;DHT22;5402;50.004;8.246;2022-08-01T04:38:16;19.90;99.90
10702;DHT22;5402;50.004;8.246;2022-08-01T04:40:44;19.90;99.90
10702;DHT22;5402;50.004;8.246;2022-08-01T04:43:12;20.00;99.90
10702;DHT22;5402;50.004;8.246;2022-08-01T04:45:40;20.10;99.90
10702;DHT22;5402;50.004;8.246;2022-08-01T04:48:09;20.10;99.90
10702;DHT22;5402;50.004;8.246;2022-08-01T04:50:36;20.20;99.90
10702;DHT22;5402;50.004;8.246;2022-08-01T04:53:03;20.20;99.90
10702;DHT22;5402;50.004;8.246;2022-08-01T04:55:30;20.20;99.90
10702;DHT22;5402;50.004;8.246;2022-08-01T04:57:57;20.30;99.90
10702;DHT22;5402;50.004;8.246;2022-08-01T05:00:26;20.40;99.90
10702;DHT22;5402;50.004;8.246;2022-08-01T05:02:55;20.30;99.90
10702;DHT22;5402;50.004;8.246;2022-08-01T05:05:22;20.30;99.90
10702;DHT22;5402;50.004;8.246;2022-08-01T05:07:51;20.40;99.90
10702;DHT22;5402;50.004;8.246;2022-08-01T05:10:18;20.50;99.90
10702;DHT22;5402;50.004;8.246;2022-08-01T05:12:45;20.50;99.90
10702;DHT22;5402;50.004;8.246;2022-08-01T05:15:12;20.60;99.90
10702;DHT22;5402;50.004;8.246;2022-08-01T05:17:39;20.60;99.90
10702;DHT22;5402;50.004;8.246;2022-08-01T05:20:11;20.60;99.90
10702;DHT22;5402;50.004;8.246;2022-08-01T05:22:39;20.60;99.90
10702;DHT22;5402;50.004;8.246;2022-08-01T05:25:07;20.60;99.90
10702;DHT22;5402;50.004;8.246;2022-08-01T05:27:33;20.70;99.90
10702;DHT22;5402;50.004;8.246;2022-08-01T05:30:05;20.70;99.90
10702;DHT22;5402;50.004;8.246;2022-08-01T05:32:33;20.70;99.90
10702;DHT22;5402;50.004;8.246;2022-08-01T05:34:59;20.70;99.90
10702;DHT22;5402;50.004;8.246;2022-08-01T05:37:27;20.70;99.90
10702;DHT22;5402;50.004;8.246;2022-08-01T05:39:54;20.80;99.90
10702;DHT22;5402;50.004;8.246;2022-08-01T05:42:21;20.90;99.90
10702;DHT22;5402;50.004;8.246;2022-08-01T05:44:49;21.10;99.90
10702;DHT22;5402;50.004;8.246;2022-08-01T05:47:16;21.20;99.90
10702;DHT22;5402;50.004;8.246;2022-08-01T05:49:43;21.30;99.90
10702;DHT22;5402;50.004;8.246;2022-08-01T05:52:10;21.30;99.90
10702;DHT22;5402;50.004;8.246;2022-08-01T05:54:38;21.40;99.90
10702;DHT22;5402;50.004;8.246;2022-08-01T05:57:05;21.40;99.90
10702;DHT22;5402;50.004;8.246;2022-08-01T05:59:32;21.50;99.90
10702;DHT22;5402;50.004;8.246;2022-08-01T06:01:59;21.50;99.90
10702;DHT22;5402;50.004;8.246;2022-08-01T06:04:25;21.60;99.90
10702;DHT22;5402;50.004;8.246;2022-08-01T06:06:52;21.60;99.90
10702;DHT22;5402;50.004;8.246;2022-08-01T06:09:19;21.80;99.90
10702;DHT22;5402;50.004;8.246;2022-08-01T06:11:47;22.00;99.90
10702;DHT22;5402;50.004;8.246;2022-08-01T06:14:13;22.10;99.90
10702;DHT22;5402;50.004;8.246;2022-08-01T06:16:40;22.20;99.90
10702;DHT22;5402;50.004;8.246;2022-08-01T06:19:07;22.30;99.90
10702;DHT22;5402;50.004;8.246;2022-08-01T06:21:34;22.40;99.90
10702;DHT22;5402;50.004;8.246;2022-08-01T06:24:00;22.40;99.90
10702;DHT22;5402;50.004;8.246;2022-08-01T06:26:27;22.50;99.90
10702;DHT22;5402;50.004;8.246;2022-08-01T06:28:55;22.40;99.90
10702;DHT22;5402;50.004;8.246;2022-08-01T06:31:22;22.40;99.90
10702;DHT22;5402;50.004;8.246;2022-08-01T06:33:48;22.40;99.90
10702;DHT22;5402;50.004;8.246;2022-08-01T06:36:15;22.30;99.90
10702;DHT22;5402;50.004;8.246;2022-08-01T06:38:42;22.40;99.90
10702;DHT22;5402;50.004;8.246;2022-08-01T06:41:09;22.50;99.90
10702;DHT22;5402;50.004;8.246;2022-08-01T06:43:35;22.50;99.90
10702;DHT22;5402;50.004;8.246;2022-08-01T06:46:04;22.50;99.90
10702;DHT22;5402;50.004;8.246;2022-08-01T06:48:30;22.50;99.90
10702;DHT22;5402;50.004;8.246;2022-08-01T06:50:57;22.60;99.90
10702;DHT22;5402;50.004;8.246;2022-08-01T06:53:39;22.70;99.90
10702;DHT22;5402;50.004;8.246;2022-08-01T06:56:07;22.80;99.90
10702;DHT22;5402;50.004;8.246;2022-08-01T06:58:34;22.80;99.90
10702;DHT22;5402;50.004;8.246;2022-08-01T07:01:04;22.90;99.90
10702;DHT22;5402;50.004;8.246;2022-08-01T07:03:32;23.00;99.90
10702;DHT22;5402;50.004;8.246;2022-08-01T07:05:59;23.00;99.90
10702;DHT22;5402;50.004;8.246;2022-08-01T07:08:26;23.00;99.90
10702;DHT22;5402;50.004;8.246;2022-08-01T07:10:53;23.00;99.90
10702;DHT22;5402;50.004;8.246;2022-08-01T07:13:19;22.90;99.90
10702;DHT22;5402;50.004;8.246;2022-08-01T07:15:50;23.00;99.90
10702;DHT22;5402;50.004;8.246;2022-08-01T07:18:18;23.20;99.90
10702;DHT22;5402;50.004;8.246;2022-08-01T07:20:45;23.20;99.90
10702;DHT22;5402;50.004;8.246;2022-08-01T07:23:12;23.20;99.90
10702;DHT22;5402;50.004;8.246;2022-08-01T07:25:39;23.20;99.90
10702;DHT22;5402;50.004;8.246;2022-08-01T07:28:06;23.40;99.90
10702;DHT22;5402;50.004;8.246;2022-08-01T07:30:33;23.30;99.90
10702;DHT22;5402;50.004;8.246;2022-08-01T07:33:00;23.30;99.90
10702;DHT22;5402;50.004;8.246;2022-08-01T07:35:28;23.40;99.90
10702;DHT22;5402;50.004;8.246;2022-08-01T07:37:55;23.60;99.90
10702;DHT22;5402;50.004;8.246;2022-08-01T07:40:22;23.70;99.90
10702;DHT22;5402;50.004;8.246;2022-08-01T07:42:49;23.50;99.90
10702;DHT22;5402;50.004;8.246;2022-08-01T07:45:16;23.40;99.90
10702;DHT22;5402;50.004;8.246;2022-08-01T07:47:43;23.50;99.90
10702;DHT22;5402;50.004;8.246;2022-08-01T07:50:10;23.50;99.90
10702;DHT22;5402;50.004;8.246;2022-08-01T07:52:39;23.50;99.90
10702;DHT22;5402;50.004;8.246;2022-08-01T07:55:07;23.50;99.90
10702;DHT22;5402;50.004;8.246;2022-08-01T07:57:34;23.60;99.90
10702;DHT22;5402;50.004;8.246;2022-08-01T08:00:02;23.70;99.90
10702;DHT22;5402;50.004;8.246;2022-08-01T08:02:29;23.90;99.90
10702;DHT22;5402;50.004;8.246;2022-08-01T08:04:55;24.10;99.90
10702;DHT22;5402;50.004;8.246;2022-08-01T08:07:22;24.00;99.90
10702;DHT22;5402;50.004;8.246;2022-08-01T08:09:50;24.00;99.90
10702;DHT22;5402;50.004;8.246;2022-08-01T08:12:18;23.90;99.90
10702;DHT22;5402;50.004;8.246;2022-08-01T08:14:44;23.90;99.90
10702;DHT22;5402;50.004;8.246;2022-08-01T08:17:14;23.90;99.90
10702;DHT22;5402;50.004;8.246;2022-08-01T08:19:40;24.20;99.90
10702;DHT22;5402;50.004;8.246;2022-08-01T08:22:10;24.40;99.90
10702;DHT22;5402;50.004;8.246;2022-08-01T08:24:37;24.50;99.90
10702;DHT22;5402;50.004;8.246;2022-08-01T08:27:06;24.80;99.90
10702;DHT22;5402;50.004;8.246;2022-08-01T08:29:34;24.80;99.90
10702;DHT22;5402;50.004;8.246;2022-08-01T08:32:01;24.60;99.90
10702;DHT22;5402;50.004;8.246;2022-08-01T08:34:28;24.80;99.90
10702;DHT22;5402;50.004;8.246;2022-08-01T08:36:56;24.60;99.90
10702;DHT22;5402;50.004;8.246;2022-08-01T08:39:23;24.70;99.90
10702;DHT22;5402;50.004;8.246;2022-08-01T08:41:50;24.70;99.90
10702;DHT22;5402;50.004;8.246;2022-08-01T08:44:19;25.10;99.90
10702;DHT22;5402;50.004;8.246;2022-08-01T08:46:47;25.10;99.90
10702;DHT22;5402;50.004;8.246;2022-08-01T08:49:17;24.90;99.90
10702;DHT22;5402;50.004;8.246;2022-08-01T08:51:47;25.00;99.90
10702;DHT22;5402;50.004;8.246;2022-08-01T08:54:15;25.00;99.90
10702;DHT22;5402;50.004;8.246;2022-08-01T08:56:43;24.80;99.90
10702;DHT22;5402;50.004;8.246;2022-08-01T08:59:11;24.70;99.90
10702;DHT22;5402;50.004;8.246;2022-08-01T09:01:41;24.60;99.90
10702;DHT22;5402;50.004;8.246;2022-08-01T09:04:08;24.50;99.90
10702;DHT22;5402;50.004;8.246;2022-08-01T09:06:34;24.40;99.90
10702;DHT22;5402;50.004;8.246;2022-08-01T09:09:01;24.30;99.90
10702;DHT22;5402;50.004;8.246;2022-08-01T09:11:29;24.10;99.90
10702;DHT22;5402;50.004;8.246;2022-08-01T09:14:06;24.20;99.90
10702;DHT22;5402;50.004;8.246;2022-08-01T09:16:36;24.20;99.90
10702;DHT22;5402;50.004;8.246;2022-08-01T09:19:10;24.30;99.90
10702;DHT22;5402;50.004;8.246;2022-08-01T09:21:37;24.40;99.90
10702;DHT22;5402;50.004;8.246;2022-08-01T09:24:14;24.50;99.90
10702;DHT22;5402;50.004;8.246;2022-08-01T09:26:42;24.90;99.90
10702;DHT22;5402;50.004;8.246;2022-08-01T09:29:18;25.20;99.90
10702;DHT22;5402;50.004;8.246;2022-08-01T09:31:46;24.90;99.90
10702;DHT22;5402;50.004;8.246;2022-08-01T09:34:15;25.00;99.90
10702;DHT22;5402;50.004;8.246;2022-08-01T09:36:49;24.80;99.80
10702;DHT22;5402;50.004;8.246;2022-08-01T09:39:19;24.70;99.90
10702;DHT22;5402;50.004;8.246;2022-08-01T09:41:47;25.00;99.50
10702;DHT22;5402;50.004;8.246;2022-08-01T09:44:14;25.20;99.00
10702;DHT22;5402;50.004;8.246;2022-08-01T09:46:53;25.60;98.90
10702;DHT22;5402;50.004;8.246;2022-08-01T09:49:32;25.80;98.60
10702;DHT22;5402;50.004;8.246;2022-08-01T09:52:10;25.80;98.60
10702;DHT22;5402;50.004;8.246;2022-08-01T09:54:38;25.80;98.70
10702;DHT22;5402;50.004;8.246;2022-08-01T09:57:10;25.70;98.90
10702;DHT22;5402;50.004;8.246;2022-08-01T09:59:37;25.70;98.40
10702;DHT22;5402;50.004;8.246;2022-08-01T10:02:07;25.60;98.50
10702;DHT22;5402;50.004;8.246;2022-08-01T10:04:35;25.50;98.40
10702;DHT22;5402;50.004;8.246;2022-08-01T10:07:07;25.60;98.80
10702;DHT22;5402;50.004;8.246;2022-08-01T10:09:35;25.90;98.90
10702;DHT22;5402;50.004;8.246;2022-08-01T10:12:03;26.30;98.20
10702;DHT22;5402;50.004;8.246;2022-08-01T10:14:31;26.80;97.70
10702;DHT22;5402;50.004;8.246;2022-08-01T10:17:00;27.10;96.80
10702;DHT22;5402;50.004;8.246;2022-08-01T10:19:28;27.10;96.80
10702;DHT22;5402;50.004;8.246;2022-08-01T10:21:57;27.40;96.30
10702;DHT22;5402;50.004;8.246;2022-08-01T10:24:26;27.80;95.80
10702;DHT22;5402;50.004;8.246;2022-08-01T10:26:57;27.90;94.40
10702;DHT22;5402;50.004;8.246;2022-08-01T10:29:31;27.90;95.70
10702;DHT22;5402;50.004;8.246;2022-08-01T10:32:01;27.60;93.20
10702;DHT22;5402;50.004;8.246;2022-08-01T10:34:29;27.70;93.40
10702;DHT22;5402;50.004;8.246;2022-08-01T10:36:57;27.80;93.30
10702;DHT22;5402;50.004;8.246;2022-08-01T10:39:25;27.90;92.80
10702;DHT22;5402;50.004;8.246;2022-08-01T10:41:54;27.80;93.00
10702;DHT22;5402;50.004;8.246;2022-08-01T10:44:22;27.70;93.40
10702;DHT22;5402;50.004;8.246;2022-08-01T10:46:52;27.60;93.70
10702;DHT22;5402;50.004;8.246;2022-08-01T10:49:22;27.70;93.10
10702;DHT22;5402;50.004;8.246;2022-08-01T10:51:50;27.30;93.20
10702;DHT22;5402;50.004;8.246;2022-08-01T10:54:18;27.50;93.40
10702;DHT22;5402;50.004;8.246;2022-08-01T10:56:46;27.40;93.40
10702;DHT22;5402;50.004;8.246;2022-08-01T10:59:15;27.20;93.20
10702;DHT22;5402;50.004;8.246;2022-08-01T11:01:55;27.10;93.30
10702;DHT22;5402;50.004;8.246;2022-08-01T11:04:33;26.80;93.50
10702;DHT22;5402;50.004;8.246;2022-08-01T11:07:05;26.60;94.20
10702;DHT22;5402;50.004;8.246;2022-08-01T11:09:40;26.50;95.00
10702;DHT22;5402;50.004;8.246;2022-08-01T11:12:09;26.50;94.40
10702;DHT22;5402;50.004;8.246;2022-08-01T11:17:37;26.90;94.10
10702;DHT22;5402;50.004;8.246;2022-08-01T11:20:08;27.30;93.70
10702;DHT22;5402;50.004;8.246;2022-08-01T11:26:11;27.60;93.30
10702;DHT22;5402;50.004;8.246;2022-08-01T11:28:38;27.60;92.90
10702;DHT22;5402;50.004;8.246;2022-08-01T11:31:27;27.80;93.20
10702;DHT22;5402;50.004;8.246;2022-08-01T11:33:55;27.80;92.40
10702;DHT22;5402;50.004;8.246;2022-08-01T11:36:22;27.70;92.20
10702;DHT22;5402;50.004;8.246;2022-08-01T11:39:10;27.90;92.40
10702;DHT22;5402;50.004;8.246;2022-08-01T11:41:38;28.10;92.70
10702;DHT22;5402;50.004;8.246;2022-08-01T11:44:08;28.10;92.20
10702;DHT22;5402;50.004;8.246;2022-08-01T11:46:54;28.20;91.60
10702;DHT22;5402;50.004;8.246;2022-08-01T11:49:32;28.20;92.50
10702;DHT22;5402;50.004;8.246;2022-08-01T11:52:01;28.40;91.30
10702;DHT22;5402;50.004;8.246;2022-08-01T11:54:29;28.20;92.30
10702;DHT22;5402;50.004;8.246;2022-08-01T11:57:00;28.20;92.40
10702;DHT22;5402;50.004;8.246;2022-08-01T11:59:27;28.00;91.80
10702;DHT22;5402;50.004;8.246;2022-08-01T12:01:54;27.80;91.00
10702;DHT22;5402;50.004;8.246;2022-08-01T12:04:20;27.50;91.40
10702;DHT22;5402;50.004;8.246;2022-08-01T12:06:47;27.30;92.30
10702;DHT22;5402;50.004;8.246;2022-08-01T12:09:18;27.50;91.80
10702;DHT22;5402;50.004;8.246;2022-08-01T12:11:46;27.60;91.60
10702;DHT22;5402;50.004;8.246;2022-08-01T12:14:19;27.60;92.20
10702;DHT22;5402;50.004;8.246;2022-08-01T12:16:51;27.70;91.40
10702;DHT22;5402;50.004;8.246;2022-08-01T12:19:20;27.70;92.20
10702;DHT22;5402;50.004;8.246;2022-08-01T12:22:05;27.70;91.20
10702;DHT22;5402;50.004;8.246;2022-08-01T12:24:32;27.60;91.20
10702;DHT22;5402;50.004;8.246;2022-08-01T12:26:59;27.50;91.90
10702;DHT22;5402;50.004;8.246;2022-08-01T12:29:38;27.40;91.70
10702;DHT22;5402;50.004;8.246;2022-08-01T12:32:22;27.10;91.50
10702;DHT22;5402;50.004;8.246;2022-08-01T12:34:49;27.00;91.90
10702;DHT22;5402;50.004;8.246;2022-08-01T12:37:16;27.00;91.70
10702;DHT22;5402;50.004;8.246;2022-08-01T12:39:45;27.10;91.60
10702;DHT22;5402;50.004;8.246;2022-08-01T12:42:13;27.00;91.80
10702;DHT22;5402;50.004;8.246;2022-08-01T12:44:44;27.00;92.00
10702;DHT22;5402;50.004;8.246;2022-08-01T12:47:12;27.00;91.50
10702;DHT22;5402;50.004;8.246;2022-08-01T12:49:42;27.10;91.40
10702;DHT22;5402;50.004;8.246;2022-08-01T12:52:10;27.20;91.90
10702;DHT22;5402;50.004;8.246;2022-08-01T12:54:59;27.20;91.30
10702;DHT22;5402;50.004;8.246;2022-08-01T12:57:26;27.30;91.30
10702;DHT22;5402;50.004;8.246;2022-08-01T13:00:05;27.40;91.30
10702;DHT22;5402;50.004;8.246;2022-08-01T13:02:32;27.50;91.70
10702;DHT22;5402;50.004;8.246;2022-08-01T13:05:00;27.60;91.80
10702;DHT22;5402;50.004;8.246;2022-08-01T13:07:35;27.80;91.60
10702;DHT22;5402;50.004;8.246;2022-08-01T13:10:03;28.00;90.90
10702;DHT22;5402;50.004;8.246;2022-08-01T13:12:30;27.90;91.50
10702;DHT22;5402;50.004;8.246;2022-08-01T13:14:58;27.90;91.30
10702;DHT22;5402;50.004;8.246;2022-08-01T13:17:31;28.00;90.50
10702;DHT22;5402;50.004;8.246;2022-08-01T13:20:00;27.80;91.30
10702;DHT22;5402;50.004;8.246;2022-08-01T13:22:33;27.90;90.50
10702;DHT22;5402;50.004;8.246;2022-08-01T13:25:11;28.00;90.60
10702;DHT22;5402;50.004;8.246;2022-08-01T13:27:37;28.00;90.60
10702;DHT22;5402;50.004;8.246;2022-08-01T13:30:13;28.20;90.60
10702;DHT22;5402;50.004;8.246;2022-08-01T13:32:42;28.00;90.10
10702;DHT22;5402;50.004;8.246;2022-08-01T13:35:10;27.80;91.60
10702;DHT22;5402;50.004;8.246;2022-08-01T13:37:40;27.80;90.40
10702;DHT22;5402;50.004;8.246;2022-08-01T13:40:10;27.80;90.40
10702;DHT22;5402;50.004;8.246;2022-08-01T13:42:37;27.70;90.20
10702;DHT22;5402;50.004;8.246;2022-08-01T13:45:05;27.50;90.30
10702;DHT22;5402;50.004;8.246;2022-08-01T13:47:36;27.50;90.30
10702;DHT22;5402;50.004;8.246;2022-08-01T13:50:04;27.50;90.20
10702;DHT22;5402;50.004;8.246;2022-08-01T13:52:31;27.50;90.10
10702;DHT22;5402;50.004;8.246;2022-08-01T13:54:58;27.50;90.50
10702;DHT22;5402;50.004;8.246;2022-08-01T13:57:25;27.50;90.30
10702;DHT22;5402;50.004;8.246;2022-08-01T13:59:52;27.60;90.10
10702;DHT22;5402;50.004;8.246;2022-08-01T14:02:19;27.60;90.40
10702;DHT22;5402;50.004;8.246;2022-08-01T14:04:47;27.70;90.20
10702;DHT22;5402;50.004;8.246;2022-08-01T14:07:14;27.80;90.10
10702;DHT22;5402;50.004;8.246;2022-08-01T14:09:41;27.80;89.60
10702;DHT22;5402;50.004;8.246;2022-08-01T14:12:08;27.80;89.20
10702;DHT22;5402;50.004;8.246;2022-08-01T14:14:35;27.90;89.30
10702;DHT22;5402;50.004;8.246;2022-08-01T14:17:01;27.80;89.50
10702;DHT22;5402;50.004;8.246;2022-08-01T14:19:28;27.90;90.00
10702;DHT22;5402;50.004;8.246;2022-08-01T14:21:57;27.90;90.60
10702;DHT22;5402;50.004;8.246;2022-08-01T14:24:24;27.80;90.60
10702;DHT22;5402;50.004;8.246;2022-08-01T14:26:51;27.90;90.90
10702;DHT22;5402;50.004;8.246;2022-08-01T14:29:18;27.90;90.60
10702;DHT22;5402;50.004;8.246;2022-08-01T14:31:45;27.70;90.50
10702;DHT22;5402;50.004;8.246;2022-08-01T14:34:12;27.80;90.70
10702;DHT22;5402;50.004;8.246;2022-08-01T14:36:39;27.80;91.00
10702;DHT22;5402;50.004;8.246;2022-08-01T14:39:08;27.90;91.30
10702;DHT22;5402;50.004;8.246;2022-08-01T14:41:34;27.80;90.80
10702;DHT22;5402;50.004;8.246;2022-08-01T14:44:01;27.80;90.90
10702;DHT22;5402;50.004;8.246;2022-08-01T14:46:29;27.70;91.10
10702;DHT22;5402;50.004;8.246;2022-08-01T14:48:56;27.80;91.00
10702;DHT22;5402;50.004;8.246;2022-08-01T14:51:22;27.80;91.20
10702;DHT22;5402;50.004;8.246;2022-08-01T14:53:49;27.60;91.80
10702;DHT22;5402;50.004;8.246;2022-08-01T14:56:18;27.70;92.30
10702;DHT22;5402;50.004;8.246;2022-08-01T14:58:45;27.60;92.30
10702;DHT22;5402;50.004;8.246;2022-08-01T15:01:11;27.60;92.40
10702;DHT22;5402;50.004;8.246;2022-08-01T15:03:38;27.60;92.20
10702;DHT22;5402;50.004;8.246;2022-08-01T15:06:06;27.50;91.80
10702;DHT22;5402;50.004;8.246;2022-08-01T15:08:34;27.30;92.00
10702;DHT22;5402;50.004;8.246;2022-08-01T15:11:01;27.40;92.30
10702;DHT22;5402;50.004;8.246;2022-08-01T15:13:29;27.50;91.50
10702;DHT22;5402;50.004;8.246;2022-08-01T15:15:56;27.50;91.60
10702;DHT22;5402;50.004;8.246;2022-08-01T15:18:23;27.60;91.60
10702;DHT22;5402;50.004;8.246;2022-08-01T15:20:50;27.50;91.60
10702;DHT22;5402;50.004;8.246;2022-08-01T15:23:17;27.50;91.80
10702;DHT22;5402;50.004;8.246;2022-08-01T15:25:44;27.60;91.60
10702;DHT22;5402;50.004;8.246;2022-08-01T15:28:11;27.60;91.40
10702;DHT22;5402;50.004;8.246;2022-08-01T15:30:40;27.60;91.50
10702;DHT22;5402;50.004;8.246;2022-08-01T15:33:07;27.60;91.60
10702;DHT22;5402;50.004;8.246;2022-08-01T15:35:34;27.50;91.80
10702;DHT22;5402;50.004;8.246;2022-08-01T15:38:01;27.40;91.70
10702;DHT22;5402;50.004;8.246;2022-08-01T15:40:27;27.40;91.60
10702;DHT22;5402;50.004;8.246;2022-08-01T15:42:54;27.30;91.70
10702;DHT22;5402;50.004;8.246;2022-08-01T15:45:21;27.20;91.90
10702;DHT22;5402;50.004;8.246;2022-08-01T15:47:49;27.20;91.90
10702;DHT22;5402;50.004;8.246;2022-08-01T15:50:16;27.30;92.10
10702;DHT22;5402;50.004;8.246;2022-08-01T15:52:43;27.20;91.90
10702;DHT22;5402;50.004;8.246;2022-08-01T15:55:10;27.10;91.90
10702;DHT22;5402;50.004;8.246;2022-08-01T15:57:37;27.30;92.30
10702;DHT22;5402;50.004;8.246;2022-08-01T16:00:06;27.20;92.80
10702;DHT22;5402;50.004;8.246;2022-08-01T16:02:33;27.00;92.40